createdAt,value
2019-05-01T00:02:15.050Z,12.00
2019-05-01T00:04:54.355Z,11.92
2019-05-01T00:07:24.849Z,11.70
2019-05-01T00:09:53.656Z,11.73
2019-05-01T00:12:22.414Z,11.72
2019-05-01T00:14:51.625Z,11.74
2019-05-01T00:17:20.930Z,11.75
2019-05-01T00:19:49.657Z,11.62
2019-05-01T00:22:18.364Z,11.72
2019-05-01T00:24:47.134Z,11.77
2019-05-01T00:27:15.852Z,11.86
2019-05-01T00:29:44.558Z,11.78
2019-05-01T00:32:13.289Z,11.67
2019-05-01T00:34:42.007Z,11.66
2019-05-01T00:37:10.756Z,11.65
2019-05-01T00:39:39.461Z,11.75
2019-05-01T00:42:08.169Z,11.82
2019-05-01T00:44:36.879Z,11.83
2019-05-01T00:47:05.591Z,11.84
2019-05-01T00:49:34.648Z,11.83
2019-05-01T00:52:03.351Z,11.87
2019-05-01T00:54:33.629Z,11.73
2019-05-01T00:57:03.942Z,11.73
2019-05-01T00:59:34.220Z,11.75
2019-05-01T01:02:20.861Z,11.69
2019-05-01T01:04:49.666Z,11.63
2019-05-01T01:07:18.376Z,11.66
2019-05-01T01:09:47.079Z,11.62
2019-05-01T01:12:15.985Z,11.65
2019-05-01T01:14:44.760Z,11.78
2019-05-01T01:17:13.473Z,11.83
2019-05-01T01:19:42.171Z,11.89
2019-05-01T01:22:10.890Z,11.96
2019-05-01T01:24:39.594Z,11.98
2019-05-01T01:27:08.356Z,11.95
2019-05-01T01:29:37.056Z,11.94
2019-05-01T01:32:05.767Z,11.96
2019-05-01T01:34:34.563Z,11.90
2019-05-01T01:37:03.269Z,11.87
2019-05-01T01:39:32.024Z,11.72
2019-05-01T01:42:00.719Z,11.85
2019-05-01T01:44:31.099Z,11.81
2019-05-01T01:47:01.511Z,11.76
2019-05-01T01:49:30.418Z,11.85
2019-05-01T01:51:59.265Z,11.83
2019-05-01T01:54:28.067Z,11.88
2019-05-01T01:56:57.177Z,11.95
2019-05-01T01:59:26.596Z,11.96
2019-05-01T02:02:03.068Z,11.96
2019-05-01T02:04:45.778Z,11.99
2019-05-01T02:07:14.482Z,11.87
2019-05-01T02:09:43.192Z,11.69
2019-05-01T02:12:12.099Z,11.57
2019-05-01T02:14:40.851Z,11.53
2019-05-01T02:17:09.551Z,11.59
2019-05-01T02:19:38.262Z,11.62
2019-05-01T02:22:06.975Z,11.61
2019-05-01T02:24:35.677Z,11.70
2019-05-01T02:27:14.947Z,11.73
2019-05-01T02:29:46.525Z,11.76
2019-05-01T02:32:17.026Z,11.69
2019-05-01T02:34:47.549Z,11.61
2019-05-01T02:37:17.961Z,11.59
2019-05-01T02:39:49.320Z,11.48
2019-05-01T02:42:20.931Z,11.53
2019-05-01T02:44:52.376Z,11.50
2019-05-01T02:47:24.001Z,11.52
2019-05-01T02:50:07.656Z,11.54
2019-05-01T02:52:38.294Z,11.51
2019-05-01T02:55:10.891Z,11.34
2019-05-01T02:57:41.086Z,11.50
2019-05-01T03:00:09.902Z,11.63
2019-05-01T03:02:39.611Z,11.56
2019-05-01T03:05:09.049Z,11.63
2019-05-01T03:07:39.061Z,11.67
2019-05-01T03:10:09.783Z,11.74
2019-05-01T03:12:41.682Z,11.76
2019-05-01T03:15:12.328Z,11.73
2019-05-01T03:17:44.414Z,11.88
2019-05-01T03:20:33.121Z,11.86
2019-05-01T03:23:16.033Z,11.85
2019-05-01T03:25:44.737Z,11.92
2019-05-01T03:28:14.380Z,11.88
2019-05-01T03:30:43.190Z,11.89
2019-05-01T03:33:12.073Z,11.85
2019-05-01T03:35:40.784Z,11.91
2019-05-01T03:38:09.806Z,11.91
2019-05-01T03:40:39.156Z,11.97
2019-05-01T03:43:08.463Z,11.94
2019-05-01T03:45:39.665Z,11.93
2019-05-01T03:48:08.884Z,11.96
2019-05-01T03:50:38.293Z,12.11
2019-05-01T03:53:07.150Z,12.50
2019-05-01T03:55:35.859Z,13.40
2019-05-01T03:58:05.562Z,14.19
2019-05-01T04:00:36.374Z,14.91
2019-05-01T04:03:18.680Z,15.29
2019-05-01T04:05:47.685Z,15.56
2019-05-01T04:08:17.497Z,15.85
2019-05-01T04:10:47.055Z,16.24
2019-05-01T04:13:15.748Z,17.02
2019-05-01T04:15:44.656Z,18.01
2019-05-01T04:18:13.484Z,18.44
2019-05-01T04:20:42.589Z,19.14
2019-05-01T04:23:11.652Z,19.87
2019-05-01T04:25:40.766Z,20.04
2019-05-01T04:28:27.577Z,19.99
2019-05-01T04:31:13.765Z,20.01
2019-05-01T04:33:44.492Z,19.63
2019-05-01T04:36:18.257Z,20.40
2019-05-01T04:38:47.074Z,21.50
2019-05-01T04:41:15.990Z,22.12
2019-05-01T04:43:44.997Z,22.72
2019-05-01T04:46:13.750Z,23.45
2019-05-01T04:48:42.752Z,23.39
2019-05-01T04:51:11.660Z,23.25
2019-05-01T04:53:40.473Z,23.83
2019-05-01T04:56:09.582Z,24.47
2019-05-01T04:58:38.589Z,22.97
2019-05-01T05:01:07.938Z,22.56
2019-05-01T05:03:36.743Z,23.18
2019-05-01T05:06:05.949Z,23.70
2019-05-01T05:08:35.021Z,24.68
2019-05-01T05:11:08.086Z,24.65
2019-05-01T05:13:38.854Z,24.18
2019-05-01T05:16:09.939Z,23.87
2019-05-01T05:18:38.857Z,21.77
2019-05-01T05:21:08.069Z,22.06
2019-05-01T05:23:36.980Z,22.05
2019-05-01T05:26:05.740Z,22.04
2019-05-01T05:28:36.143Z,21.79
2019-05-01T05:31:05.757Z,21.09
2019-05-01T05:33:35.975Z,20.82
2019-05-01T05:36:06.988Z,21.25
2019-05-01T05:38:50.497Z,21.44
2019-05-01T05:41:20.004Z,21.63
2019-05-01T05:43:49.414Z,22.10
2019-05-01T05:46:18.521Z,22.47
2019-05-01T05:48:47.378Z,21.01
2019-05-01T05:51:21.953Z,18.87
2019-05-01T05:53:55.115Z,17.84
2019-05-01T05:56:28.490Z,18.24
2019-05-01T05:59:00.943Z,18.54
2019-05-01T06:01:34.223Z,18.86
2019-05-01T06:04:13.980Z,19.26
2019-05-01T06:06:46.294Z,19.66
2019-05-01T06:09:16.719Z,19.90
2019-05-01T06:11:49.971Z,20.05
2019-05-01T06:14:22.295Z,20.09
2019-05-01T06:16:54.079Z,19.88
2019-05-01T06:19:24.430Z,20.01
2019-05-01T06:21:59.260Z,20.06
2019-05-01T06:24:35.782Z,20.07
2019-05-01T06:27:03.009Z,19.92
2019-05-01T06:29:35.779Z,20.05
2019-05-01T06:32:02.482Z,19.42
2019-05-01T06:34:31.601Z,19.60
2019-05-01T06:37:00.466Z,20.02
2019-05-01T06:39:29.285Z,20.24
2019-05-01T06:41:58.389Z,20.24
2019-05-01T06:44:33.347Z,19.90
2019-05-01T06:47:05.127Z,19.54
2019-05-01T06:50:01.108Z,19.41
2019-05-01T06:52:29.348Z,19.36
2019-05-01T06:54:59.515Z,19.37
2019-05-01T06:57:28.931Z,19.35
2019-05-01T07:00:03.293Z,19.46
2019-05-01T07:02:35.055Z,19.37
2019-05-01T07:05:02.755Z,19.11
2019-05-01T07:07:33.176Z,18.86
2019-05-01T07:10:02.485Z,18.68
2019-05-01T07:12:32.703Z,18.61
2019-05-01T07:15:02.946Z,18.78
2019-05-01T07:17:31.753Z,18.61
2019-05-01T07:20:12.024Z,18.57
2019-05-01T07:22:42.148Z,18.49
2019-05-01T07:25:10.423Z,18.41
2019-05-01T07:27:39.133Z,18.43
2019-05-01T07:30:10.600Z,18.50
2019-05-01T07:32:41.196Z,18.46
2019-05-01T07:35:10.092Z,18.46
2019-05-01T07:37:38.992Z,18.54
2019-05-01T07:40:07.900Z,18.68
2019-05-01T07:42:38.384Z,18.84
2019-05-01T07:45:19.612Z,18.69
2019-05-01T07:47:49.892Z,18.80
2019-05-01T07:50:19.055Z,18.77
2019-05-01T07:52:52.246Z,18.82
2019-05-01T07:55:21.595Z,18.78
2019-05-01T07:57:50.500Z,18.71
2019-05-01T08:00:25.356Z,18.38
2019-05-01T08:02:54.066Z,18.31
2019-05-01T08:05:22.770Z,18.43
2019-05-01T08:07:51.491Z,18.62
2019-05-01T08:10:21.062Z,18.76
2019-05-01T08:12:50.684Z,18.94
2019-05-01T08:15:22.629Z,19.00
2019-05-01T08:17:53.217Z,19.04
2019-05-01T08:20:30.635Z,19.15
2019-05-01T08:22:59.338Z,19.17
2019-05-01T08:25:28.779Z,19.18
2019-05-01T08:28:09.110Z,19.27
2019-05-01T08:30:54.634Z,19.20
2019-05-01T08:33:27.640Z,19.31
2019-05-01T08:35:56.355Z,19.49
2019-05-01T08:38:25.062Z,19.57
2019-05-01T08:40:55.441Z,19.64
2019-05-01T08:43:24.239Z,19.68
2019-05-01T08:46:00.557Z,19.66
2019-05-01T08:48:35.877Z,20.03
2019-05-01T08:51:03.956Z,20.51
2019-05-01T08:53:32.666Z,21.03
2019-05-01T08:56:01.381Z,21.43
2019-05-01T08:58:30.123Z,21.72
2019-05-01T09:00:58.887Z,21.90
2019-05-01T09:03:27.597Z,21.89
2019-05-01T09:05:57.368Z,21.78
2019-05-01T09:08:26.946Z,21.51
2019-05-01T09:11:00.197Z,21.44
2019-05-01T09:13:27.411Z,21.54
2019-05-01T09:15:56.336Z,21.66
2019-05-01T09:18:25.063Z,21.22
2019-05-01T09:20:55.336Z,21.09
2019-05-01T09:23:24.050Z,21.09
2019-05-01T09:26:06.802Z,21.11
2019-05-01T09:28:39.366Z,21.28
2019-05-01T09:31:07.839Z,21.32
2019-05-01T09:33:36.542Z,21.48
2019-05-01T09:36:05.269Z,21.46
2019-05-01T09:38:34.080Z,21.63
2019-05-01T09:41:02.820Z,21.84
2019-05-01T09:43:35.631Z,21.92
2019-05-01T09:46:01.957Z,22.20
2019-05-01T09:48:30.675Z,22.35
2019-05-01T09:51:06.999Z,22.55
2019-05-01T09:53:37.323Z,22.25
2019-05-01T09:56:13.871Z,22.08
2019-05-01T09:58:42.634Z,21.82
2019-05-01T10:01:11.341Z,21.97
2019-05-01T10:03:40.045Z,22.10
2019-05-01T10:06:12.731Z,21.92
2019-05-01T10:08:39.881Z,21.92
2019-05-01T10:11:09.661Z,21.70
2019-05-01T10:13:38.417Z,22.09
2019-05-01T10:16:07.131Z,22.23
2019-05-01T10:18:35.832Z,22.40
2019-05-01T10:21:04.550Z,22.15
2019-05-01T10:23:33.259Z,22.11
2019-05-01T10:26:03.591Z,22.20
2019-05-01T10:28:45.218Z,22.47
2019-05-01T10:31:32.968Z,22.27
2019-05-01T10:34:07.554Z,21.96
2019-05-01T10:36:38.038Z,21.96
2019-05-01T10:39:09.244Z,22.12
2019-05-01T10:41:41.011Z,22.29
2019-05-01T10:44:08.401Z,22.62
2019-05-01T10:46:37.111Z,22.45
2019-05-01T10:49:05.856Z,22.43
2019-05-01T10:51:34.568Z,22.53
2019-05-01T10:54:03.275Z,22.49
2019-05-01T10:56:32.037Z,22.23
2019-05-01T10:59:00.742Z,22.14
2019-05-01T11:01:31.015Z,22.13
2019-05-01T11:03:59.750Z,22.53
2019-05-01T11:06:28.457Z,22.80
2019-05-01T11:08:57.199Z,22.81
2019-05-01T11:11:25.903Z,22.61
2019-05-01T11:13:54.617Z,22.70
2019-05-01T11:16:23.360Z,22.94
2019-05-01T11:18:52.061Z,22.86
2019-05-01T11:21:20.786Z,22.54
2019-05-01T11:23:49.479Z,22.58
2019-05-01T11:26:18.181Z,22.74
2019-05-01T11:28:46.950Z,22.78
2019-05-01T11:31:17.234Z,22.69
2019-05-01T11:33:59.595Z,22.73
2019-05-01T11:36:46.294Z,22.68
2019-05-01T11:39:25.626Z,22.76
2019-05-01T11:42:07.864Z,22.59
2019-05-01T11:44:36.617Z,22.67
2019-05-01T11:47:05.328Z,22.73
2019-05-01T11:49:34.034Z,22.84
2019-05-01T11:52:02.801Z,23.07
2019-05-01T11:54:31.512Z,23.13
2019-05-01T11:57:00.226Z,23.34
2019-05-01T11:59:28.931Z,23.34
2019-05-01T12:01:57.643Z,23.37
2019-05-01T12:04:26.395Z,23.50
2019-05-01T12:06:55.108Z,23.59
2019-05-01T12:09:23.808Z,23.60
2019-05-01T12:11:54.098Z,23.41
2019-05-01T12:14:22.795Z,23.14
2019-05-01T12:16:55.783Z,22.95
2019-05-01T12:19:26.058Z,22.90
2019-05-01T12:21:54.776Z,22.96
2019-05-01T12:24:23.488Z,23.12
2019-05-01T12:26:52.203Z,23.41
2019-05-01T12:29:20.944Z,23.34
2019-05-01T12:31:49.648Z,23.19
2019-05-01T12:34:18.430Z,23.21
2019-05-01T12:36:47.857Z,23.14
2019-05-01T12:39:18.129Z,23.09
2019-05-01T12:41:48.550Z,23.13
2019-05-01T12:44:17.258Z,23.15
2019-05-01T12:46:50.494Z,23.46
2019-05-01T12:49:19.212Z,23.37
2019-05-01T12:51:49.489Z,23.33
2019-05-01T12:54:22.813Z,23.32
2019-05-01T12:56:53.093Z,23.53
2019-05-01T12:59:21.799Z,23.37
2019-05-01T13:01:50.508Z,23.41
2019-05-01T13:04:19.215Z,23.27
2019-05-01T13:06:49.870Z,23.49
2019-05-01T13:09:18.579Z,23.81
2019-05-01T13:11:47.279Z,23.72
2019-05-01T13:14:15.994Z,23.82
2019-05-01T13:16:44.724Z,24.05
2019-05-01T13:19:13.475Z,24.06
2019-05-01T13:21:42.187Z,24.22
2019-05-01T13:24:10.893Z,24.34
2019-05-01T13:26:41.320Z,24.19
2019-05-01T13:29:11.595Z,24.19
2019-05-01T13:31:50.857Z,24.16
2019-05-01T13:34:19.562Z,23.94
2019-05-01T13:36:48.274Z,23.91
2019-05-01T13:39:17.284Z,23.73
2019-05-01T13:41:46.053Z,23.92
2019-05-01T13:44:14.733Z,23.94
2019-05-01T13:46:43.439Z,23.97
2019-05-01T13:49:12.296Z,24.14
2019-05-01T13:51:41.007Z,24.11
2019-05-01T13:54:10.148Z,24.03
2019-05-01T13:56:38.834Z,23.82
2019-05-01T13:59:09.214Z,23.67
2019-05-01T14:01:38.041Z,23.65
2019-05-01T14:04:06.948Z,23.69
2019-05-01T14:06:35.657Z,23.87
2019-05-01T14:09:06.473Z,24.17
2019-05-01T14:11:35.181Z,24.37
2019-05-01T14:14:04.028Z,24.47
2019-05-01T14:16:32.737Z,24.23
2019-05-01T14:19:01.449Z,24.33
2019-05-01T14:21:31.735Z,24.53
2019-05-01T14:24:18.104Z,24.39
2019-05-01T14:26:46.821Z,24.05
2019-05-01T14:29:15.523Z,23.72
2019-05-01T14:31:44.274Z,23.67
2019-05-01T14:34:12.984Z,23.34
2019-05-01T14:36:41.705Z,23.37
2019-05-01T14:39:10.616Z,23.44
2019-05-01T14:41:39.321Z,23.26
2019-05-01T14:44:08.153Z,23.50
2019-05-01T14:46:36.858Z,23.55
2019-05-01T14:49:05.666Z,23.48
2019-05-01T14:51:34.487Z,23.17
2019-05-01T14:54:03.165Z,23.14
2019-05-01T14:56:31.931Z,23.27
2019-05-01T14:59:00.683Z,23.17
2019-05-01T15:01:29.426Z,23.04
2019-05-01T15:03:58.143Z,22.70
2019-05-01T15:06:26.848Z,22.66
2019-05-01T15:08:55.620Z,22.58
2019-05-01T15:11:24.343Z,22.49
2019-05-01T15:13:57.292Z,22.54
2019-05-01T15:16:43.906Z,22.58
2019-05-01T15:19:14.213Z,22.51
2019-05-01T15:21:42.921Z,22.32
2019-05-01T15:24:11.642Z,22.33
2019-05-01T15:26:40.421Z,22.20
2019-05-01T15:29:09.415Z,21.94
2019-05-01T15:31:38.129Z,22.05
2019-05-01T15:34:06.840Z,22.00
2019-05-01T15:36:35.548Z,21.82
2019-05-01T15:39:07.105Z,21.81
2019-05-01T15:41:37.379Z,21.81
2019-05-01T15:44:07.737Z,21.78
2019-05-01T15:46:38.025Z,21.72
2019-05-01T15:49:06.738Z,21.74
2019-05-01T15:51:35.648Z,21.76
2019-05-01T15:54:04.356Z,21.81
2019-05-01T15:56:33.064Z,21.72
2019-05-01T15:59:01.783Z,21.68
2019-05-01T16:01:30.489Z,21.55
2019-05-01T16:03:59.198Z,21.45
2019-05-01T16:06:27.898Z,21.42
2019-05-01T16:08:56.650Z,21.19
2019-05-01T16:11:32.943Z,21.04
2019-05-01T16:14:02.212Z,21.02
2019-05-01T16:16:30.939Z,20.93
2019-05-01T16:18:59.654Z,20.93
2019-05-01T16:21:28.401Z,20.90
2019-05-01T16:23:57.109Z,20.86
2019-05-01T16:26:25.836Z,20.79
2019-05-01T16:28:54.563Z,20.81
2019-05-01T16:31:23.276Z,20.72
2019-05-01T16:33:52.033Z,20.69
2019-05-01T16:36:20.740Z,20.58
2019-05-01T16:39:09.438Z,20.48
2019-05-01T16:41:38.137Z,20.43
2019-05-01T16:44:06.844Z,20.35
2019-05-01T16:46:35.775Z,20.33
2019-05-01T16:49:04.688Z,20.32
2019-05-01T16:51:33.491Z,20.28
2019-05-01T16:54:02.203Z,20.21
2019-05-01T16:56:33.121Z,20.20
2019-05-01T16:59:01.397Z,20.16
2019-05-01T17:01:48.018Z,20.16
2019-05-01T17:04:30.424Z,20.08
2019-05-01T17:07:06.698Z,20.07
2019-05-01T17:09:39.850Z,19.98
2019-05-01T17:12:10.922Z,19.92
2019-05-01T17:14:39.521Z,19.74
2019-05-01T17:17:10.044Z,19.70
2019-05-01T17:19:38.747Z,19.64
2019-05-01T17:22:09.303Z,19.63
2019-05-01T17:24:37.954Z,19.56
2019-05-01T17:27:06.668Z,19.58
2019-05-01T17:29:35.377Z,19.50
2019-05-01T17:32:05.374Z,19.57
2019-05-01T17:34:34.282Z,19.41
2019-05-01T17:37:04.182Z,19.51
2019-05-01T17:39:32.897Z,19.45
2019-05-01T17:42:02.201Z,19.42
2019-05-01T17:44:32.216Z,19.35
2019-05-01T17:47:00.940Z,19.38
2019-05-01T17:49:29.693Z,19.27
2019-05-01T17:51:58.428Z,19.25
2019-05-01T17:54:27.138Z,19.28
2019-05-01T17:56:55.897Z,19.19
2019-05-01T17:59:24.596Z,19.17
2019-05-01T18:01:54.911Z,19.10
2019-05-01T18:04:28.320Z,19.15
2019-05-01T18:06:57.030Z,19.22
2019-05-01T18:09:25.748Z,19.22
2019-05-01T18:11:54.474Z,19.28
2019-05-01T18:14:23.233Z,19.25
2019-05-01T18:16:51.953Z,19.14
2019-05-01T18:19:20.673Z,19.23
2019-05-01T18:21:51.841Z,19.14
2019-05-01T18:24:28.463Z,19.07
2019-05-01T18:27:07.807Z,19.04
2019-05-01T18:29:50.058Z,19.03
2019-05-01T18:32:23.318Z,18.92
2019-05-01T18:34:52.028Z,18.83
2019-05-01T18:37:31.305Z,18.78
2019-05-01T18:39:59.017Z,18.81
2019-05-01T18:42:27.946Z,18.58
2019-05-01T18:44:56.661Z,18.46
2019-05-01T18:47:26.135Z,18.45
2019-05-01T18:49:54.876Z,18.33
2019-05-01T18:52:23.554Z,18.31
2019-05-01T18:54:52.293Z,18.28
2019-05-01T18:57:20.998Z,18.19
2019-05-01T18:59:49.752Z,18.22
2019-05-01T19:02:20.574Z,18.21
2019-05-01T19:04:48.900Z,18.25
2019-05-01T19:07:17.618Z,18.16
2019-05-01T19:09:46.337Z,18.06
2019-05-01T19:12:16.000Z,18.14
2019-05-01T19:14:44.731Z,18.03
2019-05-01T19:17:13.434Z,18.09
2019-05-01T19:19:42.180Z,18.05
2019-05-01T19:22:10.885Z,17.98
2019-05-01T19:24:40.179Z,17.98
2019-05-01T19:27:09.115Z,17.90
2019-05-01T19:29:37.838Z,17.87
2019-05-01T19:32:07.306Z,17.77
2019-05-01T19:34:36.022Z,17.57
2019-05-01T19:37:04.776Z,17.44
2019-05-01T19:39:43.361Z,17.30
2019-05-01T19:42:04.390Z,17.17
2019-05-01T19:44:33.142Z,16.98
2019-05-01T19:47:01.990Z,16.89
2019-05-01T19:49:31.042Z,16.82
2019-05-01T19:52:00.618Z,16.65
2019-05-01T19:54:30.302Z,16.66
2019-05-01T19:56:59.049Z,16.55
2019-05-01T19:59:27.792Z,16.49
2019-05-01T20:01:56.508Z,16.36
2019-05-01T20:04:25.255Z,16.21
2019-05-01T20:06:54.127Z,16.19
2019-05-01T20:09:24.344Z,16.34
2019-05-01T20:11:53.079Z,16.40
2019-05-01T20:14:21.786Z,16.38
2019-05-01T20:16:50.992Z,16.38
2019-05-01T20:19:19.790Z,16.35
2019-05-01T20:21:48.503Z,16.45
2019-05-01T20:24:19.153Z,16.34
2019-05-01T20:26:47.690Z,16.33
2019-05-01T20:29:17.785Z,16.35
2019-05-01T20:31:50.827Z,16.32
2019-05-01T20:34:18.637Z,16.28
2019-05-01T20:36:47.570Z,16.28
2019-05-01T20:39:16.274Z,16.23
2019-05-01T20:41:44.978Z,15.99
2019-05-01T20:44:14.087Z,16.04
2019-05-01T20:46:44.119Z,16.06
2019-05-01T20:49:12.865Z,15.99
2019-05-01T20:51:41.573Z,15.87
2019-05-01T20:54:10.280Z,15.88
2019-05-01T20:56:49.449Z,15.82
2019-05-01T20:59:18.156Z,15.70
2019-05-01T21:01:46.869Z,15.52
2019-05-01T21:04:17.142Z,15.48
2019-05-01T21:06:47.476Z,15.45
2019-05-01T21:09:17.752Z,15.47
2019-05-01T21:11:48.873Z,15.45
2019-05-01T21:14:22.763Z,15.55
2019-05-01T21:16:48.598Z,15.39
2019-05-01T21:19:17.303Z,15.29
2019-05-01T21:21:46.016Z,15.29
2019-05-01T21:24:14.737Z,15.33
2019-05-01T21:26:43.500Z,15.34
2019-05-01T21:29:14.011Z,15.27
2019-05-01T21:31:44.072Z,15.32
2019-05-01T21:34:14.537Z,15.36
2019-05-01T21:36:47.601Z,15.41
2019-05-01T21:39:15.008Z,15.43
2019-05-01T21:41:44.379Z,15.33
2019-05-01T21:44:13.243Z,15.38
2019-05-01T21:46:43.151Z,15.25
2019-05-01T21:49:12.941Z,15.27
2019-05-01T21:51:45.925Z,15.26
2019-05-01T21:54:15.947Z,15.29
2019-05-01T21:56:42.953Z,15.16
2019-05-01T21:59:11.630Z,15.27
2019-05-01T22:01:40.466Z,15.21
2019-05-01T22:04:09.175Z,15.16
2019-05-01T22:06:37.878Z,15.23
2019-05-01T22:09:10.527Z,15.28
2019-05-01T22:11:39.719Z,15.31
2019-05-01T22:14:09.995Z,15.32
2019-05-01T22:16:38.708Z,15.34
2019-05-01T22:19:12.012Z,15.25
2019-05-01T22:21:48.456Z,15.12
2019-05-01T22:24:27.731Z,15.17
2019-05-01T22:27:03.858Z,15.14
2019-05-01T22:29:34.278Z,15.18
2019-05-01T22:32:07.638Z,15.15
2019-05-01T22:34:49.982Z,15.24
2019-05-01T22:37:18.719Z,15.28
2019-05-01T22:39:48.995Z,15.18
2019-05-01T22:42:17.696Z,15.28
2019-05-01T22:44:46.414Z,15.25
2019-05-01T22:47:16.261Z,15.13
2019-05-01T22:49:45.139Z,15.24
2019-05-01T22:52:13.846Z,15.21
2019-05-01T22:54:44.984Z,15.10
2019-05-01T22:57:13.694Z,15.05
2019-05-01T22:59:42.404Z,15.07
2019-05-01T23:02:29.617Z,14.96
2019-05-01T23:04:58.408Z,14.92
2019-05-01T23:07:27.113Z,14.93
2019-05-01T23:09:59.330Z,14.92
2019-05-01T23:12:26.257Z,15.00
2019-05-01T23:14:54.969Z,14.95
2019-05-01T23:17:34.893Z,15.03
2019-05-01T23:20:04.078Z,15.00
2019-05-01T23:22:32.393Z,14.95
2019-05-01T23:25:01.154Z,14.91
2019-05-01T23:27:30.785Z,14.92
2019-05-01T23:29:59.628Z,14.88
2019-05-01T23:32:28.347Z,14.95
2019-05-01T23:34:57.051Z,14.98
2019-05-01T23:37:26.117Z,15.05
2019-05-01T23:39:54.883Z,14.96
2019-05-01T23:42:23.585Z,15.00
2019-05-01T23:44:52.302Z,14.96
2019-05-01T23:47:21.305Z,15.10
2019-05-01T23:49:52.584Z,14.99
2019-05-01T23:52:20.482Z,14.94
2019-05-01T23:54:49.210Z,14.97
2019-05-01T23:57:18.848Z,15.01
2019-05-01T23:59:48.348Z,14.99
